Search for airport 
image banner adimage banner adimage banner ad
image banner ad

3CN4 - Kaiser Permanente Anaheim Medical Center

Located in Anaheim, United States

ICAO - 3CN4, IATA -

Data provided by Airmate  

General information

Coordinates: N33°51'7" W117°50'43"
Elevation is 341 feet MSL.
 
View others Airports in California

Operational data

Special qualification required
Current time UTC:
Current local time:
Weather at : KFUL - Fullerton Muni ( 13 km )
METAR: KFUL 211153Z AUTO 20003KT 9SM OVC011 17/14 A2994 RMK AO2 SLP136 T01720139 10178 20167 53008
View NOTAMs / SUP AIP / TFR affecting this airport [VIEW]
Communications frequencies: [VIEW]

Runways:

Airport contact information

Address: Anaheim United States

Satellite view of 3CN4